• Join FlightAware (Why Join?)
  • Login
  • US Flag 
Gobble Gobble! 
06:16PM EST


 

Airport Tracker/Info


-or-


 

Live Flight TrackerFlight Track Log ✈ JBU56 ✈ 24-Jul-2013 ✈ KIAD - KBOS

Flight Track Log - Related Links

Times and Time Zones

All times are in EDT time to prevent confusion due to time zone crossing. See the JBU56 flight status page for this flight to view local times or setup timezone preferences in your user account.

Time Position Orientation Groundspeed Altitude Reporting Facility
EDT Latitude Longitude Course Direction KTS MPH feet Rate Location/Type
09:13AM 39.0000 -77.4667 74° East 169 194 2,400  Level Potomac TRACON
09:14AM 39.0667 -77.4833 349° North 230 265 4,500 2,580 Climbing Potomac TRACON
09:15AM 39.0068 -77.0792 77° East  Level FlightAware Approximate
09:15AM 39.1333 -77.4500 21° North 288 331 7,600  Level Potomac TRACON
09:16AM 39.0306 -76.9485 77° East  Level FlightAware Approximate
09:16AM 39.1667 -77.3667 63° Northeast 310 357 9,800  Level Potomac TRACON
09:17AM 39.0527 -76.8174 78° East  Level FlightAware Approximate
09:17AM 39.1667 -77.2500 90° East 360 414 10,000  Level Potomac TRACON
09:18AM 39.0667 -76.6849 90° East  Level FlightAware Approximate
09:18AM 39.1333 -77.1333 110° East 374 430 11,000  Level Potomac TRACON
09:19AM 39.0854 -76.5573 74° East  Level FlightAware Approximate
09:21AM 39.0881 -76.8511 102° East 394 453 15,800  Level Washington Center
09:22AM 39.1042 -76.7069 82° East 388 447 17,900 2,100 Climbing Washington Center
09:23AM 39.1178 -76.5600 83° East 403 464 20,100 2,160 Climbing Washington Center
09:23AM 39.1333 -76.4333 81° East 428 493 21,700 1,440 Climbing Potomac TRACON
09:25AM 39.1469 -76.2528 84° East 427 491 23,000 960 Climbing Washington Center
09:26AM 39.1686 -76.0817 81° East 433 498 23,900 840 Climbing Washington Center
09:27AM 39.1900 -75.9156 81° East 450 518 24,800 900 Climbing Washington Center
09:28AM 39.2653 -75.7819 54° Northeast 444 511 25,800 780 Climbing Washington Center
09:29AM 39.3594 -75.6614 45° Northeast 452 520 26,400 660 Climbing Washington Center
09:30AM 39.4572 -75.5378 44° Northeast 458 527 27,200 660 Climbing Washington Center
09:31AM 39.5531 -75.4167 44° Northeast 470 541 27,800 900 Climbing Washington Center
09:32AM 39.6506 -75.2869 46° Northeast 482 555 29,000 1,080 Climbing Washington Center
09:33AM 39.7756 -75.1033 48° Northeast 515 593 30,400 840 Climbing New York Center
09:34AM 39.8722 -74.9686 47° Northeast 515 593 31,000 300 Climbing New York Center
09:35AM 39.9531 -74.8572 47° Northeast 522 601 31,000  Level New York Center
09:36AM 40.0717 -74.6850 48° Northeast 527 606 31,000  Level New York Center
09:37AM 40.1700 -74.5411 48° Northeast 532 612 31,000  Level New York Center
09:38AM 40.2847 -74.4058 42° Northeast 538 619 31,000  Level New York Center
09:39AM 40.3828 -74.2639 48° Northeast 532 612 31,000  Level New York Center
09:40AM 40.4728 -74.1075 53° Northeast 532 612 31,000 -660 Level New York Center
09:41AM 40.6222 -73.8592 52° Northeast 541 623 29,300 -1,440 Descending Boston Center
09:42AM 40.7094 -73.7106 52° Northeast 524 603 27,300 -1,920 Descending Boston Center
09:43AM 40.7794 -73.5803 55° Northeast 504 580 25,500 -1,680 Descending Boston Center
09:44AM 40.8581 -73.4389 54° Northeast 484 557 24,000 -780 Descending Boston Center
09:45AM 40.9528 -73.3031 47° Northeast 471 542 24,000 -240 Level Boston Center
09:46AM 41.0372 -73.1775 48° Northeast 456 525 23,600 -540 Descending Boston Center
09:47AM 41.1169 -73.0572 49° Northeast 451 519 23,000 -300 Descending Boston Center
09:48AM 41.1969 -72.9367 49° Northeast 441 507 23,000  Level Boston Center
09:49AM 41.2619 -72.7992 58° Northeast 436 502 23,000  Level Boston Center
09:50AM 41.3186 -72.6475 64° Northeast 436 502 23,000  Level Boston Center
09:51AM 41.3667 -72.5175 64° Northeast 441 507 23,000 -420 Level Boston Center
09:52AM 41.4208 -72.3653 65° Northeast 436 502 22,200 -1,080 Descending Boston Center
09:53AM 41.4769 -72.2156 63° Northeast 420 483 20,900 -1,260 Descending Boston Center
09:54AM 41.5244 -72.0881 64° Northeast 395 455 19,700 -1,680 Descending Boston Center
09:55AM 41.5678 -71.9600 66° East 374 430 17,600 -1,320 Descending Boston Center
09:56AM 41.6047 -71.8375 68° East 368 423 17,100 -1,080 Descending Boston Center
09:57AM 41.6417 -71.7122 68° East 361 415 15,500 -1,740 Descending Boston Center
09:58AM 41.6781 -71.5869 69° East 355 409 13,700 -1,800 Descending Boston Center
09:59AM 41.7128 -71.4722 68° East 340 391 11,900 -1,320 Descending Boston Center
10:00AM 41.7514 -71.3800 61° Northeast 318 366 11,100 -420 Descending Boston Center
10:01AM 41.7883 -71.3069 56° Northeast 304 350 11,100 -300 Level Boston Center
10:02AM 41.8353 -71.2086 57° Northeast 263 303 10,600 -900 Descending Boston Center
10:03AM 41.8972 -71.1739 23° Northeast 229 264 9,400 -1,320 Descending Boston Center
10:04AM 41.9558 -71.1894 349° North 213 245 8,000 -1,620 Descending Boston Center
10:05AM 42.0244 -71.1686 13° North 223 257 6,200 -1,020 Descending Boston Center
10:06AM 42.0742 -71.1450 19° North 217 250 6,000 -780 Descending Boston Center
10:07AM 42.1167 -71.1167 26° Northeast 216 249 5,000 -1,260 Descending KA90
10:08AM 42.1667 -71.1000 14° North 206 237 4,000 -960 Descending KA90
10:09AM 42.2167 -71.0833 14° North 182 209 3,100 -900 Descending KA90
10:10AM 42.2667 -71.0667 14° North 158 182 2,200 -900 Descending KA90
10:11AM 42.3000 -71.0333 36° Northeast 148 170 1,300 -900 Descending KA90
10:12AM 42.3333 -71.0167 20° North 151 174 400 -900 Descending KA90
10:15AM 42.3500 -71.0000 North  Level FlightAware Approximate